Quick Change II — CFG7352 — position and weather

sailwx.info

Track history (hours):
 
Tides and Currents Weather Stations Pressure Air Temp Water Temp Dewpoint Dewpoint Depression Visibility Wind Speed Wind Dir Waves Ship Positions

Quick Change II

Last reported at 2017-Oct-23 20:04 UTC. Time now 2017-Nov-22 07:33 UTC.
Position N 49°07' W 123°12'.
Warning: this ship's position is 29 days out of date.

Type: Other ship. MMSI: 316004812.

Date/timePositionNaut miles runAvg speedWind from/ knotsBaromVisibWave heightAir tempDewpointWater temp
2017-Oct-23 20:04N 49°07' W 123°12'218.9
2017-Oct-23 19:57N 49°08' W 123°15'817.6
2017-Oct-23 19:30N 49°15' W 123°19'714.1
2017-Oct-23 19:00N 49°16' W 123°08'  
2017-Oct-21 01:04N 49°16' W 123°08'0 0.0
2017-Oct-21 00:58N 49°16' W 123°08'0 0.0
2017-Oct-21 00:24N 49°16' W 123°08'2 6.1
2017-Oct-21 00:01N 49°17' W 123°12'4 6.8
2017-Oct-20 23:30N 49°15' W 123°16'1220.1
2017-Oct-20 22:55N 49°04' W 123°21'6 5.0
2017-Oct-20 21:41N 48°58' W 123°24'0 0.2
2017-Oct-20 21:29N 48°58' W 123°24'913.8
2017-Oct-20 20:49N 49°07' W 123°22'823.6
2017-Oct-20 20:30N 49°15' W 123°21'817.0
2017-Oct-20 20:00N 49°17' W 123°08'0 0.3
2017-Oct-20 19:30N 49°16' W 123°08'0 0.1
2017-Oct-20 18:55N 49°16' W 123°08'4 8.9
2017-Oct-20 18:30N 49°17' W 123°13'5 9.0
2017-Oct-20 17:59N 49°15' W 123°20'816.0
2017-Oct-20 17:30N 49°17' W 123°08'0 0.5
2017-Oct-20 16:57N 49°16' W 123°08'  
2017-Oct-14 22:19N 49°16' W 123°08'0 0.6
2017-Oct-14 22:00N 49°17' W 123°08'0 0.4
2017-Oct-14 21:30N 49°16' W 123°08'3 5.2
2017-Oct-14 20:59N 49°18' W 123°12'613.1
2017-Oct-14 20:30N 49°21' W 123°20'4 7.9
2017-Oct-14 20:00N 49°25' W 123°21'611.8
2017-Oct-14 19:30N 49°22' W 123°28'815.0
2017-Oct-14 18:59N 49°15' W 123°22'0 0.5
2017-Oct-14 18:29N 49°15' W 123°22'0 1.0
2017-Oct-14 18:00N 49°16' W 123°21'3 5.0
2017-Oct-14 17:30N 49°17' W 123°18'7 8.6
2017-Oct-14 16:44N 49°16' W 123°08'0 0.0
2017-Oct-13 22:46N 49°16' W 123°08'0 0.5
2017-Oct-13 22:26N 49°17' W 123°08'0 0.3
2017-Oct-13 21:55N 49°16' W 123°08'2 6.1
2017-Oct-13 21:30N 49°18' W 123°11'610.7
2017-Oct-13 20:59N 49°20' W 123°19'1 2.0
2017-Oct-13 20:30N 49°21' W 123°19'  
Track history (hours):
 
Tides and Currents Weather Stations Pressure Air Temp Water Temp Dewpoint Dewpoint Depression Visibility Wind Speed Wind Dir Waves Ship Positions

Quick Change II

Last reported at 2017-Oct-23 20:04 UTC. Time now 2017-Nov-22 07:33 UTC.
Position N 49°07' W 123°12'.
Warning: this ship's position is 29 days out of date.

Type: Other ship. MMSI: 316004812.

Date/timePositionNaut miles runAvg speedWind from/ knotsBaromVisibWave heightAir tempDewpointWater temp
2017-Oct-23 20:04N 49°07' W 123°12'218.9
2017-Oct-23 19:57N 49°08' W 123°15'817.6
2017-Oct-23 19:30N 49°15' W 123°19'714.1
2017-Oct-23 19:00N 49°16' W 123°08'  
2017-Oct-21 01:04N 49°16' W 123°08'0 0.0
2017-Oct-21 00:58N 49°16' W 123°08'0 0.0
2017-Oct-21 00:24N 49°16' W 123°08'2 6.1
2017-Oct-21 00:01N 49°17' W 123°12'4 6.8
2017-Oct-20 23:30N 49°15' W 123°16'1220.1
2017-Oct-20 22:55N 49°04' W 123°21'6 5.0
2017-Oct-20 21:41N 48°58' W 123°24'0 0.2
2017-Oct-20 21:29N 48°58' W 123°24'913.8
2017-Oct-20 20:49N 49°07' W 123°22'823.6
2017-Oct-20 20:30N 49°15' W 123°21'817.0
2017-Oct-20 20:00N 49°17' W 123°08'0 0.3
2017-Oct-20 19:30N 49°16' W 123°08'0 0.1
2017-Oct-20 18:55N 49°16' W 123°08'4 8.9
2017-Oct-20 18:30N 49°17' W 123°13'5 9.0
2017-Oct-20 17:59N 49°15' W 123°20'816.0
2017-Oct-20 17:30N 49°17' W 123°08'0 0.5
2017-Oct-20 16:57N 49°16' W 123°08'  
2017-Oct-14 22:19N 49°16' W 123°08'0 0.6
2017-Oct-14 22:00N 49°17' W 123°08'0 0.4
2017-Oct-14 21:30N 49°16' W 123°08'3 5.2
2017-Oct-14 20:59N 49°18' W 123°12'613.1
2017-Oct-14 20:30N 49°21' W 123°20'4 7.9
2017-Oct-14 20:00N 49°25' W 123°21'611.8
2017-Oct-14 19:30N 49°22' W 123°28'815.0
2017-Oct-14 18:59N 49°15' W 123°22'0 0.5
2017-Oct-14 18:29N 49°15' W 123°22'0 1.0
2017-Oct-14 18:00N 49°16' W 123°21'3 5.0
2017-Oct-14 17:30N 49°17' W 123°18'7 8.6
2017-Oct-14 16:44N 49°16' W 123°08'0 0.0
2017-Oct-13 22:46N 49°16' W 123°08'0 0.5
2017-Oct-13 22:26N 49°17' W 123°08'0 0.3
2017-Oct-13 21:55N 49°16' W 123°08'2 6.1
2017-Oct-13 21:30N 49°18' W 123°11'610.7
2017-Oct-13 20:59N 49°20' W 123°19'1 2.0
2017-Oct-13 20:30N 49°21' W 123°19'  

Dump ship's entire track history